createdAt,value
2018-08-24T00:02:19.711Z,91.42
2018-08-24T00:04:48.586Z,91.59
2018-08-24T00:07:17.577Z,91.86
2018-08-24T00:09:47.252Z,93.68
2018-08-24T00:12:16.156Z,93.91
2018-08-24T00:14:45.032Z,94.28
2018-08-24T00:17:19.247Z,94.70
2018-08-24T00:19:48.139Z,92.32
2018-08-24T00:22:17.052Z,94.53
2018-08-24T00:24:46.124Z,93.59
2018-08-24T00:27:15.012Z,95.06
2018-08-24T00:29:43.882Z,93.44
2018-08-24T00:32:12.762Z,93.44
2018-08-24T00:34:41.662Z,93.85
2018-08-24T00:37:10.581Z,94.19
2018-08-24T00:39:42.206Z,93.72
2018-08-24T00:42:12.772Z,92.62
2018-08-24T00:44:42.039Z,93.49
2018-08-24T00:47:10.976Z,93.79
2018-08-24T00:49:39.889Z,94.96
2018-08-24T00:52:09.120Z,92.79
2018-08-24T00:54:38.019Z,94.43
2018-08-24T00:57:07.033Z,94.55
2018-08-24T00:59:35.900Z,95.57
2018-08-24T01:02:04.822Z,95.61
2018-08-24T01:04:34.281Z,95.24
2018-08-24T01:07:08.763Z,95.55
2018-08-24T01:09:38.313Z,94.58
2018-08-24T01:12:12.416Z,94.12
2018-08-24T01:14:42.801Z,96.77
2018-08-24T01:17:16.894Z,95.85
2018-08-24T01:19:46.328Z,95.69
2018-08-24T01:22:15.543Z,95.51
2018-08-24T01:24:44.460Z,94.71
2018-08-24T01:27:13.324Z,94.93
2018-08-24T01:29:43.134Z,95.17
2018-08-24T01:32:12.022Z,96.65
2018-08-24T01:34:40.874Z,95.70
2018-08-24T01:37:09.749Z,95.68
2018-08-24T01:39:38.700Z,94.68
2018-08-24T01:42:07.640Z,95.07
2018-08-24T01:44:36.485Z,94.52
2018-08-24T01:47:05.420Z,94.91
2018-08-24T01:49:34.290Z,96.48
2018-08-24T01:52:03.174Z,96.45
2018-08-24T01:54:32.046Z,96.36
2018-08-24T01:57:00.934Z,96.94
2018-08-24T01:59:29.840Z,96.72
2018-08-24T02:01:58.695Z,96.47
2018-08-24T02:04:27.537Z,96.12
2018-08-24T02:06:56.452Z,96.52
2018-08-24T02:09:25.348Z,96.24
2018-08-24T02:11:54.247Z,96.41
2018-08-24T02:14:28.445Z,96.35
2018-08-24T02:16:57.247Z,95.38
2018-08-24T02:19:31.433Z,95.35
2018-08-24T02:22:05.629Z,94.94
2018-08-24T02:24:34.544Z,96.18
2018-08-24T02:27:03.401Z,95.08
2018-08-24T02:29:32.313Z,95.22
2018-08-24T02:32:01.249Z,95.38
2018-08-24T02:34:30.174Z,96.31
2018-08-24T02:36:59.055Z,95.52
2018-08-24T02:39:27.975Z,95.60
2018-08-24T02:41:56.914Z,95.79
2018-08-24T02:44:25.801Z,95.15
2018-08-24T02:46:54.700Z,95.47
2018-08-24T02:49:23.608Z,94.97
2018-08-24T02:51:52.545Z,94.90
2018-08-24T02:54:22.440Z,94.42
2018-08-24T02:56:51.306Z,94.63
2018-08-24T02:59:20.217Z,94.79
2018-08-24T03:01:49.171Z,94.53
2018-08-24T03:04:18.049Z,94.94
2018-08-24T03:06:47.005Z,94.82
2018-08-24T03:09:15.877Z,95.31
2018-08-24T03:11:44.761Z,94.98
2018-08-24T03:14:13.663Z,94.75
2018-08-24T03:16:46.707Z,95.73
2018-08-24T03:19:15.597Z,95.38
2018-08-24T03:21:44.498Z,95.30
2018-08-24T03:24:13.416Z,96.06
2018-08-24T03:26:42.320Z,95.23
2018-08-24T03:29:11.261Z,95.80
2018-08-24T03:31:40.136Z,96.29
2018-08-24T03:34:09.048Z,95.17
2018-08-24T03:36:37.932Z,95.03
2018-08-24T03:39:07.974Z,96.74
2018-08-24T03:41:37.029Z,96.69
2018-08-24T03:44:05.962Z,95.91
2018-08-24T03:46:34.880Z,94.92
2018-08-24T03:49:04.835Z,95.54
2018-08-24T03:51:33.760Z,96.13
2018-08-24T03:54:06.786Z,95.77
2018-08-24T03:56:35.680Z,95.41
2018-08-24T03:59:05.609Z,94.53
2018-08-24T04:01:34.592Z,94.09
2018-08-24T04:04:04.511Z,95.69
2018-08-24T04:06:33.374Z,94.37
2018-08-24T04:09:02.316Z,93.83
2018-08-24T04:11:31.199Z,94.48
2018-08-24T04:14:00.151Z,95.28
2018-08-24T04:16:34.252Z,94.51
2018-08-24T04:19:03.346Z,93.54
2018-08-24T04:21:32.221Z,92.64
2018-08-24T04:24:01.266Z,94.46
2018-08-24T04:26:30.216Z,94.64
2018-08-24T04:28:59.171Z,93.56
2018-08-24T04:31:28.096Z,93.95
2018-08-24T04:33:56.961Z,93.84
2018-08-24T04:36:25.955Z,93.32
2018-08-24T04:38:54.904Z,93.92
2018-08-24T04:41:24.845Z,93.79
2018-08-24T04:43:53.914Z,93.37
2018-08-24T04:46:23.172Z,93.09
2018-08-24T04:48:52.093Z,94.16
2018-08-24T04:51:21.000Z,92.95
2018-08-24T04:53:49.907Z,93.30
2018-08-24T04:56:18.805Z,95.46
2018-08-24T04:58:47.685Z,94.38
2018-08-24T05:01:16.658Z,94.03
2018-08-24T05:03:46.661Z,94.19
2018-08-24T05:06:15.630Z,94.11
2018-08-24T05:08:45.586Z,92.75
2018-08-24T05:11:14.465Z,93.94
2018-08-24T05:13:43.532Z,94.18
2018-08-24T05:16:13.308Z,94.23
2018-08-24T05:18:42.160Z,92.45
2018-08-24T05:21:11.118Z,92.39
2018-08-24T05:23:40.095Z,92.22
2018-08-24T05:26:09.030Z,92.88
2018-08-24T05:28:37.893Z,91.77
2018-08-24T05:31:06.816Z,91.18
2018-08-24T05:33:36.756Z,92.75
2018-08-24T05:36:05.834Z,93.17
2018-08-24T05:38:34.731Z,93.66
2018-08-24T05:41:03.603Z,92.06
2018-08-24T05:43:32.497Z,91.78
2018-08-24T05:46:01.421Z,92.99
2018-08-24T05:48:30.304Z,92.39
2018-08-24T05:50:59.204Z,91.89
2018-08-24T05:53:28.102Z,92.00
2018-08-24T05:55:57.009Z,93.13
2018-08-24T05:58:25.923Z,92.31
2018-08-24T06:00:54.966Z,91.95
2018-08-24T06:03:24.077Z,91.42
2018-08-24T06:05:58.164Z,91.94
2018-08-24T06:08:27.418Z,91.82
2018-08-24T06:10:57.451Z,91.59
2018-08-24T06:13:26.355Z,91.31
2018-08-24T06:15:55.299Z,92.39
2018-08-24T06:18:24.190Z,91.31
2018-08-24T06:20:53.078Z,91.87
2018-08-24T06:23:22.036Z,91.52
2018-08-24T06:25:50.945Z,90.49
2018-08-24T06:28:19.810Z,91.21
2018-08-24T06:30:48.695Z,91.76
2018-08-24T06:33:17.582Z,90.67
2018-08-24T06:35:46.512Z,91.98
2018-08-24T06:38:15.388Z,91.08
2018-08-24T06:40:44.435Z,90.77
2018-08-24T06:43:13.355Z,90.97
2018-08-24T06:45:42.256Z,90.57
2018-08-24T06:48:12.274Z,90.76
2018-08-24T06:50:41.133Z,91.00
2018-08-24T06:53:10.084Z,89.86
2018-08-24T06:55:38.904Z,89.13
2018-08-24T06:58:07.815Z,90.49
2018-08-24T07:00:36.840Z,91.03
2018-08-24T07:03:05.754Z,90.27
2018-08-24T07:05:34.632Z,90.30
2018-08-24T07:08:03.554Z,90.05
2018-08-24T07:10:32.443Z,89.27
2018-08-24T07:13:01.412Z,89.91
2018-08-24T07:15:30.274Z,89.47
2018-08-24T07:18:02.114Z,88.85
2018-08-24T07:20:31.643Z,89.78
2018-08-24T07:23:00.548Z,89.01
2018-08-24T07:25:29.472Z,88.51
2018-08-24T07:27:58.384Z,89.26
2018-08-24T07:30:27.621Z,88.41
2018-08-24T07:32:56.516Z,89.21
2018-08-24T07:35:25.417Z,88.27
2018-08-24T07:37:54.297Z,87.78
2018-08-24T07:40:23.173Z,86.78
2018-08-24T07:42:52.041Z,86.55
2018-08-24T07:45:20.941Z,85.12
2018-08-24T07:47:49.837Z,86.37
2018-08-24T07:50:19.803Z,84.77
2018-08-24T07:52:48.650Z,85.29
2018-08-24T07:55:17.531Z,86.72
2018-08-24T07:57:46.422Z,84.82
2018-08-24T08:00:15.258Z,86.17
2018-08-24T08:02:45.548Z,87.73
2018-08-24T08:05:15.382Z,84.92
2018-08-24T08:07:44.466Z,86.15
2018-08-24T08:10:13.341Z,86.33
2018-08-24T08:12:42.301Z,86.25
2018-08-24T08:15:11.408Z,86.79
2018-08-24T08:17:40.942Z,87.67
2018-08-24T08:20:10.379Z,87.38
2018-08-24T08:22:39.379Z,88.80
2018-08-24T08:25:08.376Z,88.13
2018-08-24T08:27:37.267Z,88.80
2018-08-24T08:30:07.299Z,88.73
2018-08-24T08:32:36.168Z,86.26
2018-08-24T08:35:05.974Z,86.87
2018-08-24T08:37:35.561Z,86.22
2018-08-24T08:40:04.564Z,83.78
2018-08-24T08:42:33.445Z,83.26
2018-08-24T08:45:02.425Z,81.79
2018-08-24T08:47:31.286Z,80.60
2018-08-24T08:50:00.175Z,78.20
2018-08-24T08:52:29.056Z,79.73
2018-08-24T08:54:57.939Z,76.93
2018-08-24T08:57:26.832Z,77.12
2018-08-24T08:59:55.731Z,76.96
2018-08-24T09:02:24.636Z,74.04
2018-08-24T09:04:53.522Z,73.37
2018-08-24T09:07:22.467Z,73.30
2018-08-24T09:09:51.348Z,73.20
2018-08-24T09:12:20.242Z,74.15
2018-08-24T09:14:49.212Z,73.21
2018-08-24T09:17:23.484Z,71.79
2018-08-24T09:19:57.606Z,71.82
2018-08-24T09:22:31.778Z,73.01
2018-08-24T09:25:05.869Z,72.14
2018-08-24T09:27:37.606Z,69.32
2018-08-24T09:30:06.658Z,66.57
2018-08-24T09:32:35.686Z,68.15
2018-08-24T09:35:04.555Z,71.06
2018-08-24T09:37:36.756Z,69.21
2018-08-24T09:40:06.381Z,65.53
2018-08-24T09:42:35.253Z,62.52
2018-08-24T09:45:04.591Z,61.65
2018-08-24T09:47:38.775Z,63.92
2018-08-24T09:50:13.318Z,60.30
2018-08-24T09:52:46.343Z,59.78
2018-08-24T09:55:15.271Z,59.24
2018-08-24T09:57:44.156Z,62.07
2018-08-24T10:00:13.031Z,60.88
2018-08-24T10:02:43.520Z,61.37
2018-08-24T10:05:17.613Z,60.57
2018-08-24T10:07:52.601Z,58.99
2018-08-24T10:10:21.524Z,57.73
2018-08-24T10:12:50.441Z,55.66
2018-08-24T10:15:19.345Z,53.48
2018-08-24T10:17:48.197Z,52.39
2018-08-24T10:20:17.068Z,52.11
2018-08-24T10:22:46.488Z,52.59
2018-08-24T10:25:16.358Z,52.79
2018-08-24T10:27:45.271Z,52.44
2018-08-24T10:30:14.128Z,52.38
2018-08-24T10:32:43.095Z,50.09
2018-08-24T10:35:12.053Z,51.30
2018-08-24T10:37:41.000Z,51.16
2018-08-24T10:40:09.895Z,49.91
2018-08-24T10:42:38.803Z,50.42
2018-08-24T10:45:07.655Z,50.40
2018-08-24T10:47:36.616Z,51.08
2018-08-24T10:50:06.721Z,50.27
2018-08-24T10:52:35.819Z,50.85
2018-08-24T10:55:04.759Z,52.14
2018-08-24T10:57:33.633Z,52.44
2018-08-24T11:00:02.509Z,53.17
2018-08-24T11:02:32.832Z,52.02
2018-08-24T11:05:01.735Z,50.15
2018-08-24T11:07:30.639Z,51.28
2018-08-24T11:10:00.888Z,50.66
2018-08-24T11:12:33.383Z,50.21
2018-08-24T11:15:04.079Z,51.47
2018-08-24T11:17:38.001Z,50.75
2018-08-24T11:20:06.928Z,51.08
2018-08-24T11:22:36.004Z,51.58
2018-08-24T11:25:05.033Z,50.96
2018-08-24T11:27:34.583Z,51.64
2018-08-24T11:30:03.858Z,50.65
2018-08-24T11:32:32.829Z,49.92
2018-08-24T11:35:01.814Z,49.94
2018-08-24T11:37:30.713Z,49.92
2018-08-24T11:39:59.677Z,49.04
2018-08-24T11:42:28.534Z,47.25
2018-08-24T11:44:57.406Z,46.61
2018-08-24T11:47:26.277Z,46.31
2018-08-24T11:49:55.181Z,47.87
2018-08-24T11:52:25.160Z,46.16
2018-08-24T11:54:54.061Z,45.45
2018-08-24T11:57:22.987Z,43.95
2018-08-24T11:59:52.218Z,45.30
2018-08-24T12:02:21.288Z,44.62
2018-08-24T12:04:50.501Z,44.22
2018-08-24T12:07:19.621Z,45.08
2018-08-24T12:09:48.775Z,43.84
2018-08-24T12:12:17.697Z,45.51
2018-08-24T12:14:46.573Z,45.95
2018-08-24T12:17:20.632Z,47.34
2018-08-24T12:19:49.512Z,47.89
2018-08-24T12:22:18.534Z,46.41
2018-08-24T12:24:47.503Z,45.93
2018-08-24T12:27:16.369Z,46.31
2018-08-24T12:29:45.246Z,45.42
2018-08-24T12:32:14.131Z,45.95
2018-08-24T12:34:43.166Z,46.10
2018-08-24T12:37:13.128Z,46.40
2018-08-24T12:39:43.053Z,45.31
2018-08-24T12:42:12.557Z,45.20
2018-08-24T12:44:42.007Z,41.75
2018-08-24T12:47:12.007Z,43.11
2018-08-24T12:49:41.320Z,42.83
2018-08-24T12:52:10.241Z,43.25
2018-08-24T12:54:39.207Z,43.97
2018-08-24T12:57:08.292Z,44.83
2018-08-24T12:59:37.200Z,46.15
2018-08-24T13:02:06.105Z,45.17
2018-08-24T13:04:35.008Z,44.33
2018-08-24T13:07:03.874Z,45.15
2018-08-24T13:09:33.400Z,45.00
2018-08-24T13:12:02.288Z,43.88
2018-08-24T13:14:31.175Z,44.16
2018-08-24T13:17:00.076Z,44.04
2018-08-24T13:19:29.043Z,43.61
2018-08-24T13:21:57.913Z,44.10
2018-08-24T13:24:27.197Z,44.38
2018-08-24T13:26:56.091Z,43.97
2018-08-24T13:29:24.941Z,43.86
2018-08-24T13:31:53.883Z,44.00
2018-08-24T13:34:22.789Z,45.00
2018-08-24T13:36:51.739Z,44.64
2018-08-24T13:39:20.644Z,45.93
2018-08-24T13:41:49.515Z,45.72
2018-08-24T13:44:18.415Z,46.99
2018-08-24T13:46:47.505Z,46.33
2018-08-24T13:49:16.397Z,46.63
2018-08-24T13:51:45.275Z,46.72
2018-08-24T13:54:14.171Z,46.73
2018-08-24T13:56:43.034Z,47.09
2018-08-24T13:59:12.021Z,46.70
2018-08-24T14:01:40.912Z,45.65
2018-08-24T14:04:09.852Z,44.28
2018-08-24T14:06:38.787Z,44.58
2018-08-24T14:09:08.978Z,44.94
2018-08-24T14:11:37.882Z,44.49
2018-08-24T14:14:06.786Z,45.48
2018-08-24T14:16:36.130Z,45.57
2018-08-24T14:19:05.077Z,44.81
2018-08-24T14:21:33.996Z,44.13
2018-08-24T14:24:02.877Z,44.11
2018-08-24T14:26:31.942Z,43.43
2018-08-24T14:29:00.837Z,42.66
2018-08-24T14:31:29.868Z,41.53
2018-08-24T14:33:58.737Z,42.89
2018-08-24T14:36:27.743Z,43.30
2018-08-24T14:38:56.702Z,44.21
2018-08-24T14:41:25.694Z,44.84
2018-08-24T14:43:54.772Z,44.58
2018-08-24T14:46:23.620Z,45.29
2018-08-24T14:48:53.697Z,45.20
2018-08-24T14:51:23.614Z,45.67
2018-08-24T14:53:53.517Z,46.17
2018-08-24T14:56:23.496Z,45.15
2018-08-24T14:58:52.421Z,44.55
2018-08-24T15:01:21.336Z,44.75
2018-08-24T15:03:50.385Z,44.03
2018-08-24T15:06:19.373Z,43.32
2018-08-24T15:08:48.265Z,42.45
2018-08-24T15:11:17.222Z,42.31
2018-08-24T15:13:46.050Z,43.07
2018-08-24T15:16:14.959Z,42.85
2018-08-24T15:18:43.869Z,42.32
2018-08-24T15:21:13.766Z,42.18
2018-08-24T15:23:42.660Z,42.12
2018-08-24T15:26:11.592Z,41.78
2018-08-24T15:28:40.590Z,41.92
2018-08-24T15:31:09.571Z,41.63
2018-08-24T15:33:38.581Z,42.03
2018-08-24T15:36:07.544Z,41.67
2018-08-24T15:38:36.557Z,41.95
2018-08-24T15:41:05.548Z,42.79
2018-08-24T15:43:34.549Z,43.64
2018-08-24T15:46:03.517Z,43.12
2018-08-24T15:48:32.395Z,43.79
2018-08-24T15:51:01.296Z,43.82
2018-08-24T15:53:30.353Z,42.89
2018-08-24T15:55:59.307Z,43.10
2018-08-24T15:58:28.188Z,43.20
2018-08-24T16:00:57.176Z,41.19
2018-08-24T16:03:26.081Z,41.28
2018-08-24T16:05:54.953Z,42.98
2018-08-24T16:08:23.867Z,42.81
2018-08-24T16:10:52.845Z,42.91
2018-08-24T16:13:21.737Z,43.77
2018-08-24T16:15:50.733Z,43.04
2018-08-24T16:18:23.249Z,43.98
2018-08-24T16:20:54.213Z,43.08
2018-08-24T16:23:23.213Z,43.41
2018-08-24T16:25:52.155Z,43.79
2018-08-24T16:28:21.125Z,44.79
2018-08-24T16:30:50.038Z,44.54
2018-08-24T16:33:19.223Z,44.55
2018-08-24T16:35:48.109Z,45.05
2018-08-24T16:38:17.547Z,44.86
2018-08-24T16:40:46.473Z,44.83
2018-08-24T16:43:15.787Z,44.83
2018-08-24T16:45:44.912Z,44.47
2018-08-24T16:48:13.817Z,44.91
2018-08-24T16:50:42.753Z,45.82
2018-08-24T16:53:11.957Z,46.07
2018-08-24T16:55:41.891Z,46.07
2018-08-24T16:58:11.075Z,45.26
2018-08-24T17:00:39.898Z,45.31
2018-08-24T17:03:09.889Z,45.58
2018-08-24T17:05:38.755Z,46.22
2018-08-24T17:08:07.909Z,44.88
2018-08-24T17:10:36.908Z,44.71
2018-08-24T17:13:05.883Z,45.59
2018-08-24T17:15:34.912Z,44.29
2018-08-24T17:18:03.789Z,44.63
2018-08-24T17:20:33.753Z,45.17
2018-08-24T17:23:02.652Z,45.70
2018-08-24T17:25:31.497Z,45.63
2018-08-24T17:28:00.352Z,47.35
2018-08-24T17:30:29.310Z,46.50
2018-08-24T17:32:58.190Z,46.78
2018-08-24T17:35:27.111Z,47.01
2018-08-24T17:37:57.044Z,47.87
2018-08-24T17:40:25.999Z,47.82
2018-08-24T17:42:54.907Z,47.10
2018-08-24T17:45:24.860Z,47.88
2018-08-24T17:47:53.842Z,48.14
2018-08-24T17:50:22.804Z,47.92
2018-08-24T17:52:51.712Z,47.56
2018-08-24T17:55:20.701Z,48.29
2018-08-24T17:57:49.716Z,49.04
2018-08-24T18:00:18.737Z,48.56
2018-08-24T18:02:47.678Z,48.28
2018-08-24T18:05:16.672Z,49.43
2018-08-24T18:07:45.800Z,48.67
2018-08-24T18:10:14.752Z,48.83
2018-08-24T18:12:44.649Z,48.82
2018-08-24T18:15:13.707Z,48.83
2018-08-24T18:17:42.484Z,49.41
2018-08-24T18:20:11.350Z,48.80
2018-08-24T18:22:40.218Z,49.18
2018-08-24T18:25:10.184Z,50.85
2018-08-24T18:27:39.092Z,49.94
2018-08-24T18:30:08.220Z,50.08
2018-08-24T18:32:37.158Z,50.29
2018-08-24T18:35:06.146Z,50.02
2018-08-24T18:37:35.117Z,49.96
2018-08-24T18:40:04.114Z,50.67
2018-08-24T18:42:33.005Z,49.82
2018-08-24T18:45:01.872Z,50.36
2018-08-24T18:47:30.839Z,49.41
2018-08-24T18:49:59.689Z,50.00
2018-08-24T18:52:28.588Z,49.63
2018-08-24T18:54:57.492Z,49.45
2018-08-24T18:57:26.399Z,49.99
2018-08-24T18:59:55.314Z,57.43
2018-08-24T19:02:24.385Z,48.45
2018-08-24T19:04:53.263Z,49.18
2018-08-24T19:07:22.214Z,50.06
2018-08-24T19:09:51.119Z,49.92
2018-08-24T19:12:26.602Z,50.86
2018-08-24T19:14:56.432Z,49.72
2018-08-24T19:17:30.644Z,49.66
2018-08-24T19:20:04.786Z,50.15
2018-08-24T19:22:33.715Z,51.55
2018-08-24T19:25:02.786Z,51.24
2018-08-24T19:27:37.988Z,51.77
2018-08-24T19:30:12.317Z,50.69
2018-08-24T19:32:41.269Z,51.82
2018-08-24T19:35:10.149Z,51.55
2018-08-24T19:37:40.098Z,51.12
2018-08-24T19:40:15.182Z,51.37
2018-08-24T19:42:45.100Z,51.61
2018-08-24T19:45:15.027Z,51.83
2018-08-24T19:47:49.329Z,51.86
2018-08-24T19:50:18.194Z,53.04
2018-08-24T19:52:47.071Z,52.87
2018-08-24T19:55:16.000Z,52.33
2018-08-24T19:57:50.158Z,53.07
2018-08-24T20:00:19.146Z,52.56
2018-08-24T20:02:48.053Z,53.62
2018-08-24T20:05:17.071Z,53.13
2018-08-24T20:07:51.294Z,53.44
2018-08-24T20:10:21.204Z,53.92
2018-08-24T20:12:50.084Z,53.98
2018-08-24T20:17:26.188Z,56.22
2018-08-24T20:19:55.239Z,56.20
2018-08-24T20:22:24.246Z,57.00
2018-08-24T20:24:53.218Z,57.43
2018-08-24T20:27:22.086Z,56.65
2018-08-24T20:29:51.144Z,57.07
2018-08-24T20:32:21.145Z,58.08
2018-08-24T20:34:50.025Z,58.38
2018-08-24T20:37:19.624Z,59.34
2018-08-24T20:39:48.544Z,59.09
2018-08-24T20:42:17.382Z,59.25
2018-08-24T20:44:47.424Z,58.55
2018-08-24T20:47:16.363Z,59.00
2018-08-24T20:49:45.174Z,59.67
2018-08-24T20:52:14.101Z,60.65
2018-08-24T20:54:43.407Z,61.00
2018-08-24T20:57:12.302Z,61.44
2018-08-24T20:59:41.217Z,61.59
2018-08-24T21:02:10.397Z,60.82
2018-08-24T21:04:39.871Z,61.54
2018-08-24T21:07:08.945Z,61.41
2018-08-24T21:09:38.029Z,62.43
2018-08-24T21:12:07.371Z,63.82
2018-08-24T21:14:36.310Z,63.32
2018-08-24T21:17:05.167Z,62.47
2018-08-24T21:19:34.051Z,63.01
2018-08-24T21:22:02.970Z,62.83
2018-08-24T21:24:31.862Z,63.29
2018-08-24T21:27:01.908Z,63.08
2018-08-24T21:29:30.890Z,62.71
2018-08-24T21:31:59.768Z,63.42
2018-08-24T21:34:28.654Z,63.84
2018-08-24T21:36:57.551Z,64.63
2018-08-24T21:39:26.462Z,65.08
2018-08-24T21:41:55.366Z,65.62
2018-08-24T21:44:24.351Z,64.55
2018-08-24T21:46:53.245Z,64.76
2018-08-24T21:49:22.132Z,65.41
2018-08-24T21:51:50.977Z,64.75
2018-08-24T21:54:19.904Z,63.21
2018-08-24T21:56:48.781Z,64.37
2018-08-24T21:59:17.623Z,61.61
2018-08-24T22:01:46.590Z,56.74
2018-08-24T22:04:15.463Z,54.89
2018-08-24T22:06:44.318Z,54.80
2018-08-24T22:09:13.212Z,54.29
2018-08-24T22:11:43.163Z,53.28
2018-08-24T22:14:12.168Z,53.89
2018-08-24T22:16:41.217Z,54.86
2018-08-24T22:19:10.039Z,54.85
2018-08-24T22:21:39.013Z,55.80
2018-08-24T22:24:07.901Z,56.89
2018-08-24T22:26:37.831Z,57.25
2018-08-24T22:29:06.701Z,56.32
2018-08-24T22:31:35.581Z,56.16
2018-08-24T22:34:04.453Z,57.03
2018-08-24T22:36:33.381Z,56.29
2018-08-24T22:39:03.496Z,56.04
2018-08-24T22:41:32.595Z,56.31
2018-08-24T22:44:01.626Z,57.22
2018-08-24T22:46:30.599Z,56.90
2018-08-24T22:48:59.613Z,57.63
2018-08-24T22:51:28.492Z,56.64
2018-08-24T22:53:57.440Z,57.06
2018-08-24T22:56:26.423Z,57.56
2018-08-24T22:58:55.530Z,57.01
2018-08-24T23:01:24.489Z,55.87
2018-08-24T23:03:53.366Z,55.20
2018-08-24T23:06:22.390Z,55.06
2018-08-24T23:08:51.279Z,55.24
2018-08-24T23:11:20.250Z,55.61
2018-08-24T23:13:49.158Z,54.77
2018-08-24T23:16:18.067Z,55.40
2018-08-24T23:18:47.004Z,55.06
2018-08-24T23:21:16.170Z,55.67
2018-08-24T23:23:45.366Z,55.75
2018-08-24T23:26:14.522Z,55.83
2018-08-24T23:28:43.740Z,55.62
2018-08-24T23:31:12.604Z,55.63
2018-08-24T23:33:41.489Z,55.45
2018-08-24T23:36:10.399Z,55.34
2018-08-24T23:38:39.300Z,55.89
2018-08-24T23:41:08.203Z,55.75
2018-08-24T23:43:37.063Z,55.86
2018-08-24T23:46:06.085Z,55.28
2018-08-24T23:48:34.949Z,55.00
2018-08-24T23:51:03.844Z,55.26
2018-08-24T23:53:32.721Z,55.03
2018-08-24T23:56:01.639Z,55.05
2018-08-24T23:58:30.629Z,55.82
